Alma, IL (62807)

11:12 AM CST del 16 Gennaio 2017 (GMT -0600)
Alma Park | | Change Station
Avvisi attivi: Dense Fog Advisory

Alt. 640 ft 38.72 °N, 88.91 °W | Updated 12 minutes ago

Coperto
Coperto
45.2 °F
Sembra 45 °F
N
0.0
Vento Variabile Vento da ESE

Oggi
Massima -- | Minima -- °F
--% Possibilità di precip.
Ieri
Massima -- | Minima -- °F
Precip. -- in
Pressione 30.14 in
Visibilità 1.0 miglia
Nuvole Coperto 300 ft
Raffreddamento del vento 45 °F
Punto di rugiada 45 °F
Umidità 98%
Piovosità 0.00 in
Spessore del manto nevoso Non disponibile.
7:11 AM 4:59 PM
Gobba a levante, 80% visible
METAR KSLO 161655Z AUTO 14007KT 1SM BR OVC003 08/07 A3014 RMK AO2 T00810074
Pressione 30.14 in
Visibilità 1.0 miglia
Nuvole Coperto 300 ft
Raffreddamento del vento 45 °F
Punto di rugiada 45 °F
Umidità 98%
Piovosità 0.00 in
Spessore del manto nevoso Non disponibile.
7:11 AM 4:59 PM
Gobba a levante, 80% visible
METAR KSLO 161655Z AUTO 14007KT 1SM BR OVC003 08/07 A3014 RMK AO2 T00810074

Get Your Daily Forecast Email!

Thanks for signing up!

Be on the lookout for a verification email in your inbox.

You'll start receiving the daily forecast at 8 AM.

×

10-Day Weather Forecast

Almanac

Astronomia

Jan. 16, 2017 Alba Tramonto
Ora attuale
Crepuscolo civile
Crepuscolo nautico
Crepuscolo astronomico
Luna
Estensione della luce visibile
Lunghezza del giorno
Tomorrow will be .
, % of the Moon is Illuminated

Gli estremi di oggi

State Highs State Lows

Community

WunderPhotos

Upload Photos

1,962,540 foto caricate!

WunderBlog® & News

Nearby

Qualità dell'aria

  Qualità dell'aria Indice AQ Inquinante
Not available.

Profondità neve

Stazione Profondità Altitudine

Attività sismica

Città  Distanza Mag. Data & Ora
Minimo Magnitudo Mostrato è 2.5.

Temperature delle acque costiere

Località Temperatura

Stations

Stazioni meteo nelle vicinanze

Ubicazione della stazione Temp. Raffreddamento del vento Punto di rugiada Umidità Vento Precip. Alt. Aggiornato Tipo
                   

Watches & Warnings

Dense Fog Advisory
Issued: 09:51 CST Jan. 16, 2017 – National Weather Service

... Dense fog advisory now in effect until noon CST today...

* timing... dense fog will continue through noon.

* Visibilities... visibilities of one-quarter mile or less at times
will persist.

* Impacts... rapid changes in visibility will cause hazardous
driving conditions.

Precautionary/preparedness actions...

A dense fog advisory is issued when dense fog will substantially
reduce visibilities... to one-quarter mile or less... resulting in
hazardous driving conditions in many areas. Motorists are advised
to use caution and slow down... as objects on and near roadways
will be seen only at close range.



Byrd